createdAt,value
2019-02-09T00:04:14.228Z,4.15
2019-02-09T00:09:19.626Z,8.45
2019-02-09T00:14:25.426Z,4.00
2019-02-09T00:19:31.336Z,5.35
2019-02-09T00:24:38.276Z,4.33
2019-02-09T00:29:46.410Z,5.20
2019-02-09T00:34:52.136Z,4.92
2019-02-09T00:39:58.576Z,4.42
2019-02-09T00:45:04.827Z,3.40
2019-02-09T00:50:10.696Z,4.85
2019-02-09T00:55:16.966Z,4.30
2019-02-09T01:00:24.566Z,4.45
2019-02-09T01:05:33.347Z,5.80
2019-02-09T01:10:39.196Z,4.33
2019-02-09T01:15:45.026Z,3.87
2019-02-09T01:20:50.560Z,4.53
2019-02-09T01:25:56.537Z,5.33
2019-02-09T01:31:01.886Z,5.33
2019-02-09T01:36:09.487Z,4.42
2019-02-09T01:41:15.627Z,3.52
2019-02-09T01:46:21.966Z,3.98
2019-02-09T01:51:28.177Z,4.22
2019-02-09T01:56:34.346Z,4.45
2019-02-09T02:01:40.036Z,3.40
2019-02-09T02:06:46.326Z,3.52
2019-02-09T02:11:52.058Z,3.58
2019-02-09T02:16:58.107Z,4.15
2019-02-09T02:22:04.106Z,3.75
2019-02-09T02:27:10.317Z,4.65
2019-02-09T02:32:16.825Z,4.20
2019-02-09T02:37:22.665Z,4.05
2019-02-09T02:42:28.515Z,4.80
2019-02-09T02:47:34.457Z,5.12
2019-02-09T02:52:40.377Z,3.67
2019-02-09T02:57:46.067Z,3.58
2019-02-09T03:02:51.929Z,3.33
2019-02-09T03:07:57.987Z,3.80
2019-02-09T03:13:03.767Z,2.83
2019-02-09T03:18:09.281Z,3.33
2019-02-09T03:23:15.296Z,3.50
2019-02-09T03:28:21.089Z,3.08
2019-02-09T03:33:27.246Z,2.77
2019-02-09T03:38:32.820Z,3.22
2019-02-09T03:43:38.448Z,2.83
2019-02-09T03:48:44.246Z,3.05
2019-02-09T03:53:49.897Z,3.50
2019-02-09T03:58:55.627Z,3.30
2019-02-09T04:04:01.249Z,2.95
2019-02-09T04:09:09.577Z,3.08
2019-02-09T04:14:15.590Z,2.90
2019-02-09T04:19:21.398Z,2.52
2019-02-09T04:24:28.196Z,3.00
2019-02-09T04:29:34.037Z,3.12
2019-02-09T04:34:39.685Z,2.92
2019-02-09T04:39:45.197Z,3.40
2019-02-09T04:44:50.878Z,2.60
2019-02-09T04:49:56.778Z,2.40
2019-02-09T04:55:02.547Z,2.20
2019-02-09T05:00:09.846Z,2.30
2019-02-09T05:05:15.607Z,2.00
2019-02-09T05:10:21.718Z,2.85
2019-02-09T05:15:27.497Z,2.72
2019-02-09T05:20:33.346Z,2.20
2019-02-09T05:25:39.107Z,2.30
2019-02-09T05:30:44.847Z,2.37
2019-02-09T05:35:50.618Z,2.55
2019-02-09T05:40:56.377Z,2.42
2019-02-09T05:46:02.130Z,2.08
2019-02-09T05:51:07.943Z,1.90
2019-02-09T05:56:13.706Z,2.12
2019-02-09T06:01:19.548Z,2.47
2019-02-09T06:06:25.263Z,2.83
2019-02-09T06:11:49.766Z,2.00
2019-02-09T06:16:55.487Z,3.00
2019-02-09T06:22:01.277Z,2.55
2019-02-09T06:27:06.936Z,2.17
2019-02-09T06:32:12.686Z,2.75
2019-02-09T06:37:18.027Z,1.72
2019-02-09T06:42:23.726Z,2.17
2019-02-09T06:47:29.658Z,1.75
2019-02-09T06:52:35.987Z,2.37
2019-02-09T06:57:41.775Z,2.00
2019-02-09T07:02:47.586Z,3.20
2019-02-09T07:07:53.333Z,17.82
2019-02-09T07:12:59.448Z,3.85
2019-02-09T07:18:05.189Z,2.67
2019-02-09T07:23:10.916Z,3.55
2019-02-09T07:28:16.767Z,4.78
2019-02-09T07:33:22.606Z,4.97
2019-02-09T07:38:28.407Z,6.78
2019-02-09T07:43:34.287Z,7.95
2019-02-09T07:48:40.136Z,7.53
2019-02-09T07:53:46.076Z,6.80
2019-02-09T07:58:51.736Z,6.22
2019-02-09T08:03:57.456Z,10.88
2019-02-09T08:09:03.267Z,2.85
2019-02-09T08:14:09.308Z,8.25
2019-02-09T08:19:15.126Z,4.67
2019-02-09T08:24:20.896Z,7.00
2019-02-09T08:29:26.736Z,2.98
2019-02-09T08:34:32.657Z,13.35
2019-02-09T08:39:38.777Z,13.85
2019-02-09T08:44:44.396Z,8.00
2019-02-09T08:49:50.016Z,8.10
2019-02-09T08:54:56.072Z,8.30
2019-02-09T09:00:01.895Z,9.85
2019-02-09T09:05:09.991Z,10.03
2019-02-09T09:10:16.139Z,7.90
2019-02-09T09:15:24.946Z,12.80
2019-02-09T09:20:33.307Z,9.40
2019-02-09T09:25:39.116Z,11.22
2019-02-09T09:30:44.809Z,8.30
2019-02-09T09:35:50.376Z,8.98
2019-02-09T09:40:56.186Z,11.78
2019-02-09T09:46:01.856Z,7.90
2019-02-09T09:51:07.650Z,12.58
2019-02-09T09:56:14.376Z,8.53
2019-02-09T10:01:20.470Z,7.33
2019-02-09T10:06:26.657Z,16.82
2019-02-09T10:11:32.325Z,17.98
2019-02-09T10:16:38.135Z,18.32
2019-02-09T10:21:44.016Z,16.48
2019-02-09T10:26:49.946Z,11.88
2019-02-09T10:31:55.906Z,14.73
2019-02-09T10:37:01.567Z,9.93
2019-02-09T10:42:07.467Z,10.98
2019-02-09T10:47:13.141Z,11.85
2019-02-09T10:52:19.145Z,18.00
2019-02-09T10:57:25.051Z,22.17
2019-02-09T11:02:30.846Z,18.23
2019-02-09T11:07:36.671Z,15.28
2019-02-09T11:12:42.476Z,20.27
2019-02-09T11:17:48.289Z,14.58
2019-02-09T11:22:54.067Z,15.75
2019-02-09T11:27:59.878Z,15.65
2019-02-09T11:33:05.737Z,17.30
2019-02-09T11:38:11.447Z,14.55
2019-02-09T11:43:17.356Z,13.28
2019-02-09T11:48:23.198Z,16.00
2019-02-09T11:53:29.407Z,36.23
2019-02-09T11:58:35.506Z,16.40
2019-02-09T12:03:41.275Z,14.85
2019-02-09T12:08:47.136Z,9.98
2019-02-09T12:13:55.429Z,7.92
2019-02-09T12:19:00.340Z,7.72
2019-02-09T12:24:06.061Z,10.25
2019-02-09T12:29:11.894Z,9.33
2019-02-09T12:34:17.942Z,10.40
2019-02-09T12:39:23.641Z,8.38
2019-02-09T12:44:28.837Z,10.18
2019-02-09T12:49:34.015Z,10.40
2019-02-09T12:54:39.297Z,9.75
2019-02-09T12:59:44.999Z,7.40
2019-02-09T13:04:50.210Z,17.17
2019-02-09T13:09:56.056Z,17.48
2019-02-09T13:15:01.826Z,18.27
2019-02-09T13:20:09.886Z,29.92
2019-02-09T13:25:15.636Z,65.03
2019-02-09T13:30:23.985Z,58.92
2019-02-09T13:35:30.837Z,66.33
2019-02-09T13:40:37.016Z,69.82
2019-02-09T13:45:53.727Z,59.20
2019-02-09T13:50:59.436Z,70.92
2019-02-09T13:56:05.577Z,60.70
2019-02-09T14:01:11.427Z,66.33
2019-02-09T14:06:17.747Z,60.17
2019-02-09T14:11:23.697Z,46.95
2019-02-09T14:16:29.626Z,38.85
2019-02-09T14:21:35.496Z,46.68
2019-02-09T14:26:41.457Z,41.55
2019-02-09T14:31:47.845Z,34.27
2019-02-09T14:36:53.512Z,43.08
2019-02-09T14:41:59.466Z,33.58
2019-02-09T14:47:05.396Z,33.78
2019-02-09T14:52:10.877Z,31.50
2019-02-09T14:57:16.976Z,31.65
2019-02-09T15:02:22.739Z,39.15
2019-02-09T15:07:28.946Z,37.38
2019-02-09T15:12:34.687Z,28.27
2019-02-09T15:17:40.688Z,30.75
2019-02-09T15:22:46.556Z,24.70
2019-02-09T15:27:52.438Z,28.98
2019-02-09T15:32:58.427Z,18.92
2019-02-09T15:38:04.208Z,32.15
2019-02-09T15:43:10.168Z,37.25
2019-02-09T15:48:15.926Z,36.68
2019-02-09T15:53:21.727Z,26.07
2019-02-09T15:58:27.495Z,30.10
2019-02-09T16:03:33.187Z,22.05
2019-02-09T16:08:40.027Z,24.98
2019-02-09T16:13:46.056Z,31.07
2019-02-09T16:18:52.057Z,38.65
2019-02-09T16:23:57.836Z,39.25
2019-02-09T16:29:03.446Z,49.85
2019-02-09T16:34:09.597Z,45.67
2019-02-09T16:39:16.656Z,31.68
2019-02-09T16:44:22.358Z,35.33
2019-02-09T16:49:28.189Z,36.45
2019-02-09T16:54:34.157Z,31.17
2019-02-09T16:59:39.705Z,34.75
2019-02-09T17:04:45.307Z,32.98
2019-02-09T17:09:51.305Z,20.95
2019-02-09T17:14:57.226Z,24.55
2019-02-09T17:20:03.046Z,11.90
2019-02-09T17:25:09.056Z,20.60
2019-02-09T17:30:18.516Z,32.20
2019-02-09T17:35:24.136Z,16.12
2019-02-09T17:40:32.246Z,31.25
2019-02-09T17:46:01.641Z,19.20
2019-02-09T17:51:07.126Z,22.52
2019-02-09T17:56:13.015Z,19.37
2019-02-09T18:01:18.527Z,17.60
2019-02-09T18:06:24.686Z,18.40
2019-02-09T18:11:30.818Z,15.05
2019-02-09T18:16:36.137Z,12.88
2019-02-09T18:21:42.729Z,18.23
2019-02-09T18:26:48.637Z,22.25
2019-02-09T18:31:54.526Z,19.65
2019-02-09T18:37:00.295Z,17.27
2019-02-09T18:42:06.168Z,19.87
2019-02-09T18:47:11.819Z,8.88
2019-02-09T18:52:17.628Z,13.30
2019-02-09T18:57:23.546Z,15.80
2019-02-09T19:02:29.297Z,11.03
2019-02-09T19:07:34.671Z,17.32
2019-02-09T19:12:40.306Z,13.93
2019-02-09T19:17:45.875Z,14.40
2019-02-09T19:22:51.483Z,9.28
2019-02-09T19:27:57.143Z,11.93
2019-02-09T19:33:02.824Z,11.65
2019-02-09T19:38:08.569Z,12.07
2019-02-09T19:43:14.013Z,13.25
2019-02-09T19:48:19.684Z,11.70
2019-02-09T19:53:25.645Z,15.78
2019-02-09T19:58:31.436Z,11.30
2019-02-09T20:03:37.276Z,10.43
2019-02-09T20:08:43.075Z,10.65
2019-02-09T20:13:48.884Z,10.10
2019-02-09T20:18:54.665Z,8.93
2019-02-09T20:24:00.787Z,8.23
2019-02-09T20:29:06.496Z,12.58
2019-02-09T20:34:12.189Z,11.03
2019-02-09T20:39:17.617Z,11.40
2019-02-09T20:44:23.294Z,8.85
2019-02-09T20:49:28.973Z,8.70
2019-02-09T20:54:34.826Z,14.38
2019-02-09T20:59:40.654Z,15.58
2019-02-09T21:04:46.255Z,13.62
2019-02-09T21:09:52.104Z,15.48
2019-02-09T21:14:57.876Z,16.32
2019-02-09T21:20:03.377Z,18.15
2019-02-09T21:25:11.774Z,13.00
2019-02-09T21:30:19.262Z,12.98
2019-02-09T21:35:25.195Z,12.85
2019-02-09T21:40:31.368Z,12.65
2019-02-09T21:45:44.343Z,12.25
2019-02-09T21:50:44.095Z,13.00
2019-02-09T21:55:50.354Z,11.05
2019-02-09T22:00:56.275Z,13.10
2019-02-09T22:06:02.125Z,13.83
2019-02-09T22:11:07.845Z,15.80
2019-02-09T22:16:14.387Z,12.18
2019-02-09T22:21:20.350Z,13.25
2019-02-09T22:26:26.443Z,11.18
2019-02-09T22:31:31.934Z,5.58
2019-02-09T22:36:37.684Z,9.43
2019-02-09T22:41:49.033Z,12.73
2019-02-09T22:46:51.125Z,11.43
2019-02-09T22:51:56.884Z,11.93
2019-02-09T22:57:03.103Z,12.33
2019-02-09T23:02:09.074Z,8.95
2019-02-09T23:07:21.114Z,11.68
2019-02-09T23:12:26.725Z,7.33
2019-02-09T23:17:32.604Z,11.20
2019-02-09T23:22:38.315Z,9.00
2019-02-09T23:27:44.056Z,8.60
2019-02-09T23:32:49.713Z,10.25
2019-02-09T23:37:55.365Z,8.95
2019-02-09T23:43:01.006Z,7.58
2019-02-09T23:48:06.885Z,7.22
2019-02-09T23:53:12.834Z,7.10
2019-02-09T23:58:18.625Z,8.93
